Portada
METAR-TAF:

METAR-TAF

Aeroports :

Pembrey, Gal·les

latitud: 51-43N, longitud: 004-22W, altitud: 3 m

Observació

L'informe es va fer fa 31 minuts, a les 19:50 UTC
Vent 5 kt del Nord
Temperatura 19°C
Humitat 73%
Pressió 1018 hPa
Visibilitat 10 km o més

METAR: EGOP 161950Z AUTO 35005KT 9999 // NCD 19/14 Q1018

Hora: 21:21 (20:21 UTC)


TAF: manca

Observacions i pronòstics meteorològics de més de 4000 aeroports (METAR i TAF).

Les estacions disponibles són els punts grocs i vermells al mapa.

Posi el ratolí al punt desitjat per veure el nom de l'estació.

Feu clic per veure les observacions i els pronòstics meteorològics.

Per canviar el mapa: feu clic els botons verds amb una creu de color negre per apropar; al botó verd amb un guió per allunyar la imatge; o en les fletxes verdes per a mapes adjacents.


METAR-TAF: